Time,TemperatureF,DewpointF,PressureIn,WindDirection,WindDirectionDegrees,WindSpeedMPH,WindSpeedGustMPH,Humidity,HourlyPrecipIn,Conditions,Clouds,dailyrainin,SoftwareType,DateUTC
2013-08-05 00:02:00,62.0,45.0,-100.00,SSE,155,3.0,5.0,53,0.00,,,0.00,,2013-08-05 07:02:00,
2013-08-05 00:12:00,62.0,45.0,-100.00,SSE,155,3.0,5.0,53,0.00,,,0.00,,2013-08-05 07:12:00,
2013-08-05 00:43:00,58.0,41.0,-100.00,ESE,120,2.0,6.0,54,0.00,,,0.00,,2013-08-05 07:43:00,
2013-08-05 00:53:00,58.0,41.0,-100.00,ESE,120,2.0,6.0,54,0.00,,,0.00,,2013-08-05 07:53:00,
2013-08-05 01:02:00,58.0,41.0,-100.00,ESE,120,2.0,6.0,54,0.00,,,0.00,,2013-08-05 08:02:00,
2013-08-05 01:12:00,58.0,41.0,-100.00,ESE,120,2.0,6.0,54,0.00,,,0.00,,2013-08-05 08:12:00,
2013-08-05 01:54:00,54.0,40.0,-100.00,SE,126,1.0,3.0,59,0.00,,,0.00,,2013-08-05 08:54:00,
2013-08-05 02:04:00,54.0,40.0,-100.00,SE,126,1.0,3.0,59,0.00,,,0.00,,2013-08-05 09:04:00,
2013-08-05 02:13:00,54.0,40.0,-100.00,SE,126,1.0,3.0,59,0.00,,,0.00,,2013-08-05 09:13:00,
2013-08-05 02:48:00,52.0,39.0,-100.00,ESE,114,2.0,3.0,61,0.00,,,0.00,,2013-08-05 09:48:00,
2013-08-05 02:53:00,52.0,39.0,-100.00,ESE,114,2.0,3.0,61,0.00,,,0.00,,2013-08-05 09:53:00,
2013-08-05 03:04:00,52.0,39.0,-100.00,ESE,114,2.0,3.0,61,0.00,,,0.00,,2013-08-05 10:04:00,
2013-08-05 03:13:00,52.0,39.0,-100.00,ESE,114,2.0,3.0,61,0.00,,,0.00,,2013-08-05 10:13:00,
2013-08-05 03:49:00,51.0,38.0,-100.00,SE,124,2.0,3.0,62,0.00,,,-99.99,,2013-08-05 10:49:00,
2013-08-05 04:04:00,51.0,38.0,-100.00,SE,124,2.0,3.0,62,0.00,,,-99.99,,2013-08-05 11:04:00,
2013-08-05 04:13:00,51.0,38.0,-100.00,SE,124,2.0,3.0,62,0.00,,,-99.99,,2013-08-05 11:13:00,
2013-08-05 05:51:00,48.0,36.0,-100.00,ENE,68,1.0,3.0,62,0.00,,,0.00,,2013-08-05 12:51:00,
2013-08-05 06:02:00,48.0,36.0,-100.00,ENE,68,1.0,3.0,62,0.00,,,0.00,,2013-08-05 13:02:00,
2013-08-05 06:13:00,48.0,36.0,-100.00,ENE,68,1.0,3.0,62,0.00,,,0.00,,2013-08-05 13:13:00,
2013-08-05 06:45:00,49.0,38.0,-100.00,ESE,118,1.0,2.0,65,0.00,,,0.00,,2013-08-05 13:45:00,
2013-08-05 06:53:00,49.0,38.0,-100.00,ESE,118,1.0,2.0,65,0.00,,,0.00,,2013-08-05 13:53:00,
2013-08-05 07:03:00,49.0,38.0,-100.00,ESE,118,1.0,2.0,65,0.00,,,0.00,,2013-08-05 14:03:00,
2013-08-05 07:48:00,57.0,46.0,-100.00,ESE,102,0.0,2.0,66,0.00,,,0.00,,2013-08-05 14:48:00,
2013-08-05 07:53:00,57.0,46.0,-100.00,ESE,102,0.0,2.0,66,0.00,,,0.00,,2013-08-05 14:53:00,
2013-08-05 08:03:00,57.0,46.0,-100.00,ESE,102,0.0,2.0,66,0.00,,,0.00,,2013-08-05 15:03:00,
2013-08-05 08:13:00,57.0,46.0,-100.00,ESE,102,0.0,2.0,66,0.00,,,0.00,,2013-08-05 15:13:00,
2013-08-05 08:58:00,69.0,55.0,-100.00,NW,310,2.0,4.0,61,0.00,,,0.00,,2013-08-05 15:58:00,
2013-08-05 09:04:00,69.0,55.0,-100.00,NW,310,2.0,4.0,61,0.00,,,0.00,,2013-08-05 16:04:00,
2013-08-05 09:59:00,77.0,41.0,-100.00,WSW,256,5.0,10.0,28,0.00,,,0.00,,2013-08-05 16:59:00,
2013-08-05 10:50:00,76.0,37.0,-100.00,WSW,253,5.0,14.0,24,0.00,,,0.00,,2013-08-05 17:50:00,
2013-08-05 11:13:00,76.0,37.0,-100.00,WSW,253,5.0,14.0,24,0.00,,,0.00,,2013-08-05 18:13:00,
2013-08-05 11:45:00,79.0,43.0,-100.00,West,261,7.0,12.0,28,0.00,,,0.00,,2013-08-05 18:45:00,
2013-08-05 11:54:00,79.0,43.0,-100.00,West,261,7.0,12.0,28,0.00,,,0.00,,2013-08-05 18:54:00,
2013-08-05 12:13:00,79.0,43.0,-100.00,West,261,7.0,12.0,28,0.00,,,0.00,,2013-08-05 19:13:00,
2013-08-05 12:53:00,78.0,39.0,-100.00,West,269,7.0,16.0,25,0.00,,,0.00,,2013-08-05 19:53:00,
2013-08-05 13:04:00,78.0,39.0,-100.00,West,269,7.0,16.0,25,0.00,,,0.00,,2013-08-05 20:04:00,
2013-08-05 13:48:00,80.0,41.0,-100.00,SSW,208,5.0,16.0,25,0.00,,,0.00,,2013-08-05 20:48:00,
2013-08-05 13:59:00,80.0,41.0,-100.00,SSW,208,5.0,16.0,25,0.00,,,0.00,,2013-08-05 20:59:00,
2013-08-05 14:13:00,80.0,41.0,-100.00,SSW,208,5.0,16.0,25,0.00,,,0.00,,2013-08-05 21:13:00,
2013-08-05 14:48:00,80.0,42.0,-100.00,WSW,254,6.0,18.0,26,0.00,,,0.00,,2013-08-05 21:48:00,
2013-08-05 14:53:00,80.0,42.0,-100.00,WSW,254,6.0,18.0,26,0.00,,,0.00,,2013-08-05 21:53:00,
2013-08-05 15:04:00,80.0,42.0,-100.00,WSW,254,6.0,18.0,26,0.00,,,0.00,,2013-08-05 22:04:00,
2013-08-05 15:13:00,80.0,42.0,-100.00,WSW,254,6.0,18.0,26,0.00,,,0.00,,2013-08-05 22:13:00,
2013-08-05 15:44:00,80.0,44.0,-100.00,WSW,255,7.0,15.0,28,0.00,,,0.00,,2013-08-05 22:44:00,
2013-08-05 15:53:00,80.0,44.0,-100.00,WSW,255,7.0,15.0,28,0.00,,,0.00,,2013-08-05 22:53:00,
2013-08-05 16:03:00,80.0,44.0,-100.00,WSW,255,7.0,15.0,28,0.00,,,0.00,,2013-08-05 23:03:00,
2013-08-05 16:13:00,80.0,44.0,-100.00,WSW,255,7.0,15.0,28,0.00,,,0.00,,2013-08-05 23:13:00,
2013-08-05 16:46:00,80.0,43.0,-100.00,SSW,209,7.0,16.0,27,0.00,,,0.00,,2013-08-05 23:46:00,
2013-08-05 16:59:00,80.0,43.0,-100.00,SSW,209,7.0,16.0,27,0.00,,,0.00,,2013-08-05 23:59:00,
2013-08-05 17:13:00,80.0,43.0,-100.00,SSW,209,7.0,16.0,27,0.00,,,0.00,,2013-08-06 00:13:00,
2013-08-05 17:46:00,81.0,42.0,-100.00,SW,234,6.0,16.0,25,0.00,,,0.00,,2013-08-06 00:46:00,
2013-08-05 17:57:00,81.0,42.0,-100.00,SW,234,6.0,16.0,25,0.00,,,0.00,,2013-08-06 00:57:00,
2013-08-05 18:04:00,81.0,42.0,-100.00,SW,234,6.0,16.0,25,0.00,,,0.00,,2013-08-06 01:04:00,
2013-08-05 18:13:00,81.0,42.0,-100.00,SW,234,6.0,16.0,25,0.00,,,0.00,,2013-08-06 01:13:00,
2013-08-05 18:52:00,76.0,37.0,-100.00,West,263,5.0,16.0,24,0.00,,,0.00,,2013-08-06 01:52:00,
2013-08-05 18:59:00,76.0,37.0,-100.00,West,263,5.0,16.0,24,0.00,,,0.00,,2013-08-06 01:59:00,
2013-08-05 19:12:00,76.0,37.0,-100.00,West,263,5.0,16.0,24,0.00,,,0.00,,2013-08-06 02:12:00,
2013-08-05 19:49:00,72.0,36.0,-100.00,SE,145,7.0,14.0,27,0.00,,,0.00,,2013-08-06 02:49:00,
2013-08-05 20:01:00,72.0,36.0,-100.00,SE,145,7.0,14.0,27,0.00,,,0.00,,2013-08-06 03:01:00,
2013-08-05 20:13:00,72.0,36.0,-100.00,SE,145,7.0,14.0,27,0.00,,,0.00,,2013-08-06 03:13:00,
2013-08-05 20:45:00,69.0,44.0,-100.00,SSE,155,6.0,15.0,41,0.00,,,0.00,,2013-08-06 03:45:00,
2013-08-05 20:52:00,69.0,44.0,-100.00,SSE,155,6.0,15.0,41,0.00,,,0.00,,2013-08-06 03:52:00,
2013-08-05 21:01:00,69.0,44.0,-100.00,SSE,155,6.0,15.0,41,0.00,,,0.00,,2013-08-06 04:01:00,
2013-08-05 21:11:00,69.0,44.0,-100.00,SSE,155,6.0,15.0,41,0.00,,,0.00,,2013-08-06 04:11:00,
2013-08-05 21:44:00,68.0,45.0,-100.00,SSE,166,3.0,12.0,43,0.00,,,0.00,,2013-08-06 04:44:00,
2013-08-05 21:53:00,68.0,45.0,-100.00,SSE,166,3.0,12.0,43,0.00,,,0.00,,2013-08-06 04:53:00,
2013-08-05 22:02:00,68.0,45.0,-100.00,SSE,166,3.0,12.0,43,0.00,,,0.00,,2013-08-06 05:02:00,
2013-08-05 22:11:00,68.0,45.0,-100.00,SSE,166,3.0,12.0,43,0.00,,,0.00,,2013-08-06 05:11:00,
2013-08-05 22:43:00,67.0,43.0,-100.00,SSE,159,4.0,9.0,42,0.00,,,0.00,,2013-08-06 05:43:00,
2013-08-05 22:53:00,67.0,43.0,-100.00,SSE,159,4.0,9.0,42,0.00,,,0.00,,2013-08-06 05:53:00,
2013-08-05 23:01:00,67.0,43.0,-100.00,SSE,159,4.0,9.0,42,0.00,,,0.00,,2013-08-06 06:01:00,
2013-08-05 23:11:00,67.0,43.0,-100.00,SSE,159,4.0,9.0,42,0.00,,,0.00,,2013-08-06 06:11:00,
2013-08-05 23:43:00,66.0,43.0,-100.00,SE,128,2.0,8.0,43,0.00,,,0.00,,2013-08-06 06:43:00,
2013-08-05 23:52:00,66.0,43.0,-100.00,SE,128,2.0,8.0,43,0.00,,,0.00,,2013-08-06 06:52:00,